Lavela — 2BPL5 — position and weather

sailwx.info

Track history (hours):
 
Tides and Currents Weather Stations Pressure Air Temp Water Temp Dewpoint Dewpoint Depression Visibility Wind Speed Wind Dir Waves Ship Positions

Lavela

Last reported at 2018-Jun-19 14:16 UTC. Time now 2018-Jul-17 22:58 UTC.
Position N 48°37' W 006°02'.
Warning: this ship's position is 28 days out of date.

Length 175 m; draft 9.3 m.

Type: Tanker. MMSI: 235068202.

Date/timePositionNaut miles runAvg speedWind from/ knotsBaromVisibWave heightAir tempDewpointWater temp
2018-Jun-19 14:16N 48°37' W 006°02'413.4
2018-Jun-19 13:58N 48°41' W 005°59'613.2
2018-Jun-19 13:30N 48°46' W 005°55'713.2
2018-Jun-19 12:59N 48°52' W 005°50'612.0
2018-Jun-19 12:30N 48°56' W 005°43'611.8
2018-Jun-19 11:59N 48°59' W 005°36'611.4
2018-Jun-19 11:27N 49°03' W 005°28'611.4
2018-Jun-19 10:56N 49°05' W 005°20'510.9
2018-Jun-19 10:27N 49°07' W 005°13'1710.4
2018-Jun-19 08:50N 49°16' W 004°50'6411.9
2018-Jun-19 03:27N 49°49' W 003°26'612.8
2018-Jun-19 03:00N 49°52' W 003°18'1212.2
2018-Jun-19 02:01N 49°57' W 003°01'111.7
2018-Jun-19 01:57N 49°57' W 002°60'711.1
2018-Jun-19 01:22N 49°60' W 002°50'510.5
2018-Jun-19 00:50N 50°01' W 002°42'410.1
2018-Jun-19 00:27N 50°02' W 002°36'40 9.8
2018-Jun-18 20:19N 50°13' W 001°36'2513.8
2018-Jun-18 18:33N 50°19' W 000°58'314.8
2018-Jun-18 18:19N 50°20' W 000°53'1214.3
2018-Jun-18 17:28N 50°23' W 000°35'713.8
2018-Jun-18 16:56N 50°25' W 000°24'1412.8
2018-Jun-18 15:50N 50°29' W 000°03'512.3
2018-Jun-18 15:26N 50°30' E 000°05'511.9
2018-Jun-18 15:00N 50°32' E 000°12'611.5
2018-Jun-18 14:30N 50°33' E 000°21'511.1
2018-Jun-18 14:01N 50°35' E 000°29'510.5
2018-Jun-18 13:30N 50°37' E 000°37'510.5
2018-Jun-18 13:01N 50°39' E 000°44'510.6
2018-Jun-18 12:31N 50°42' E 000°51'611.1
2018-Jun-18 12:01N 50°45' E 000°59'711.9
2018-Jun-18 11:24N 50°49' E 001°08'512.8
2018-Jun-18 11:01N 50°52' E 001°15'714.0
2018-Jun-18 10:30N 50°57' E 001°22'714.7
2018-Jun-18 10:00N 51°03' E 001°29'714.5
2018-Jun-18 09:30N 51°08' E 001°38'713.8
2018-Jun-18 09:00N 51°13' E 001°45'612.8
2018-Jun-18 08:30N 51°18' E 001°51'612.1
2018-Jun-18 08:00N 51°24' E 001°56'510.3
2018-Jun-18 07:30N 51°25' E 002°04'612.1
2018-Jun-18 07:00N 51°22' E 002°12'610.5
2018-Jun-18 06:29N 51°21' E 002°21'510.8
2018-Jun-18 05:58N 51°23' E 002°30'610.6
2018-Jun-18 05:27N 51°23' E 002°39'510.3
2018-Jun-18 04:59N 51°22' E 002°46'510.2
2018-Jun-18 04:30N 51°23' E 002°54'510.6
2018-Jun-18 04:00N 51°24' E 003°02'510.2
2018-Jun-18 03:30N 51°24' E 003°10'510.1
2018-Jun-18 03:00N 51°25' E 003°18'5 9.5
2018-Jun-18 02:30N 51°25' E 003°26'510.0
2018-Jun-18 02:00N 51°26' E 003°34'3 6.6
2018-Jun-18 01:30N 51°26' E 003°39'5 9.8
2018-Jun-18 01:00N 51°23' E 003°44'511.0
2018-Jun-18 00:30N 51°21' E 003°52'611.0
2018-Jun-18 00:00N 51°25' E 003°58'4 8.8
2018-Jun-17 23:30N 51°23' E 004°03'611.6
2018-Jun-17 23:00N 51°24' E 004°13'4 8.4
2018-Jun-17 22:31N 51°21' E 004°17'0 0.1
2018-Jun-17 22:01N 51°21' E 004°17'0 0.0
2018-Jun-17 21:31N 51°21' E 004°17'1 2.9
2018-Jun-17 21:00N 51°19' E 004°19'2 3.6
2018-Jun-17 20:24N 51°18' E 004°20'0 0.0
2018-Jun-17 20:00N 51°18' E 004°20'0 0.0
2018-Jun-17 19:30N 51°18' E 004°20'0 0.0
2018-Jun-17 19:00N 51°18' E 004°20'0 0.0
2018-Jun-17 18:24N 51°18' E 004°20'0 0.0
2018-Jun-17 18:00N 51°18' E 004°20'0 0.0
2018-Jun-17 17:30N 51°18' E 004°20'0 0.0
2018-Jun-17 17:00N 51°18' E 004°20'0 0.0
2018-Jun-17 16:30N 51°18' E 004°20'0 0.0
2018-Jun-17 16:00N 51°18' E 004°20'0 0.0
2018-Jun-17 15:24N 51°18' E 004°20'0 0.0
2018-Jun-17 15:00N 51°18' E 004°20'0 0.0
2018-Jun-17 14:30N 51°18' E 004°20'0 0.0
2018-Jun-17 14:00N 51°18' E 004°20'0 0.0
2018-Jun-17 13:18N 51°18' E 004°20'0 0.0
2018-Jun-17 13:00N 51°18' E 004°20'0 0.0
2018-Jun-17 12:30N 51°18' E 004°20'0 0.0
2018-Jun-17 12:00N 51°18' E 004°20'0 0.0
2018-Jun-17 11:30N 51°18' E 004°20'0 0.0
2018-Jun-17 11:00N 51°18' E 004°20'0 0.0
2018-Jun-17 09:36N 51°18' E 004°20'0 0.0
2018-Jun-17 09:30N 51°18' E 004°20'0 0.0
2018-Jun-17 07:48N 51°18' E 004°20'0 0.0
2018-Jun-17 07:30N 51°18' E 004°20'0 0.0
2018-Jun-17 06:48N 51°18' E 004°20'0 0.0
2018-Jun-17 06:30N 51°18' E 004°20'0 0.0
2018-Jun-17 04:36N 51°18' E 004°20'0 0.0
2018-Jun-17 04:30N 51°18' E 004°20'0 0.0
2018-Jun-17 04:00N 51°18' E 004°20'0 0.0
2018-Jun-17 02:33N 51°18' E 004°20'0 0.0
2018-Jun-17 02:21N 51°18' E 004°20'0 0.0
2018-Jun-16 21:42N 51°18' E 004°20'0 0.0
2018-Jun-16 18:24N 51°18' E 004°20'0 0.0
2018-Jun-16 17:42N 51°18' E 004°20'0 0.0
2018-Jun-16 17:24N 51°18' E 004°20'0 0.0
2018-Jun-16 16:54N 51°18' E 004°20'0 0.0
2018-Jun-16 16:30N 51°18' E 004°20'0 0.0
2018-Jun-16 14:54N 51°18' E 004°20'0 0.0
2018-Jun-16 14:30N 51°18' E 004°20'0 0.0
2018-Jun-16 13:54N 51°18' E 004°20'0 0.0
2018-Jun-16 13:30N 51°18' E 004°20'0 0.0
2018-Jun-16 13:00N 51°18' E 004°20'0 0.0
2018-Jun-16 12:30N 51°18' E 004°20'0 0.0
2018-Jun-16 12:00N 51°18' E 004°20'0 0.0
2018-Jun-16 11:18N 51°18' E 004°20'0 0.0
2018-Jun-16 11:00N 51°18' E 004°20'0 0.0
2018-Jun-16 10:30N 51°18' E 004°20'0 0.0
2018-Jun-16 09:54N 51°18' E 004°20'0 0.0
2018-Jun-16 09:18N 51°18' E 004°20'0 0.0
2018-Jun-16 08:48N 51°18' E 004°20'0 0.0
2018-Jun-16 08:21N 51°18' E 004°20'0 0.0
2018-Jun-16 07:57N 51°18' E 004°20'0 0.0
2018-Jun-16 07:30N 51°18' E 004°20'0 0.0
2018-Jun-16 07:00N 51°18' E 004°20'0 0.0
2018-Jun-16 06:27N 51°18' E 004°20'0 0.0
2018-Jun-16 06:00N 51°18' E 004°20'0 0.0
2018-Jun-16 05:30N 51°18' E 004°20'0 0.0
2018-Jun-16 05:00N 51°18' E 004°20'0 0.0
2018-Jun-16 04:30N 51°18' E 004°20'0 0.0
2018-Jun-16 04:00N 51°18' E 004°20'0 0.0
2018-Jun-16 03:24N 51°18' E 004°20'0 0.0
2018-Jun-16 03:00N 51°18' E 004°20'0 0.0
2018-Jun-16 02:30N 51°18' E 004°20'0 0.0
2018-Jun-16 02:00N 51°18' E 004°20'0 0.0
2018-Jun-16 01:30N 51°18' E 004°20'0 0.0
2018-Jun-16 00:54N 51°18' E 004°20'0 0.0
2018-Jun-16 00:24N 51°18' E 004°20'0 0.0
2018-Jun-16 00:00N 51°18' E 004°20'0 0.0
2018-Jun-15 23:18N 51°18' E 004°20'0 0.0
2018-Jun-15 22:54N 51°18' E 004°20'0 0.0
2018-Jun-15 22:24N 51°18' E 004°20'0 0.0
2018-Jun-15 21:54N 51°18' E 004°20'0 0.0
2018-Jun-15 21:30N 51°18' E 004°20'0 0.0
2018-Jun-15 20:54N 51°18' E 004°20'0 0.0
2018-Jun-15 17:48N 51°18' E 004°20'0 0.0
2018-Jun-15 17:24N 51°18' E 004°20'0 0.0
2018-Jun-15 16:54N 51°18' E 004°20'0 0.0
2018-Jun-15 16:06N 51°18' E 004°20'0 0.1
2018-Jun-15 16:00N 51°18' E 004°20'0 0.0
2018-Jun-15 15:30N 51°18' E 004°20'0 0.0
2018-Jun-15 14:54N 51°18' E 004°20'0 0.0
2018-Jun-15 14:30N 51°18' E 004°20'0 0.0
2018-Jun-15 14:00N 51°18' E 004°20'0 0.0
2018-Jun-15 13:30N 51°18' E 004°20'0 0.0
2018-Jun-15 12:30N 51°18' E 004°20'0 0.0
2018-Jun-15 12:00N 51°18' E 004°20'0 0.0
2018-Jun-15 11:30N 51°18' E 004°20'0 0.0
2018-Jun-15 10:48N 51°18' E 004°20'0 0.0
2018-Jun-15 10:30N 51°18' E 004°20'0 0.0
2018-Jun-15 09:48N 51°18' E 004°20'0 0.0
2018-Jun-15 09:30N 51°18' E 004°20'0 0.0
2018-Jun-15 08:42N 51°18' E 004°20'0 0.0
2018-Jun-15 07:36N 51°18' E 004°20'0 0.0
2018-Jun-15 07:24N 51°18' E 004°20'0 0.0
2018-Jun-15 06:54N 51°18' E 004°20'0 0.0
2018-Jun-15 06:24N 51°18' E 004°20'0 0.0
2018-Jun-15 06:00N 51°18' E 004°20'0 0.0
2018-Jun-15 05:30N 51°18' E 004°20'0 0.9
2018-Jun-15 05:00N 51°17' E 004°20'3 5.2
2018-Jun-15 04:30N 51°15' E 004°22'0 0.8
2018-Jun-15 04:00N 51°15' E 004°23'0 0.0
2018-Jun-15 03:30N 51°15' E 004°23'0 0.0
2018-Jun-15 03:00N 51°15' E 004°23'0 0.0
2018-Jun-15 02:30N 51°15' E 004°23'0 0.0
2018-Jun-15 02:00N 51°15' E 004°23'0 0.0
2018-Jun-15 01:30N 51°15' E 004°23'0 0.0
2018-Jun-15 01:00N 51°15' E 004°23'0 0.0
2018-Jun-15 00:30N 51°15' E 004°23'0 0.0
2018-Jun-15 00:00N 51°15' E 004°23'0 0.0
2018-Jun-14 23:30N 51°15' E 004°23'0 0.0
2018-Jun-14 23:00N 51°15' E 004°23'0 0.0
2018-Jun-14 22:30N 51°15' E 004°23'0 0.0
2018-Jun-14 22:00N 51°15' E 004°23'0 0.0
2018-Jun-14 21:24N 51°15' E 004°23'0 0.0
2018-Jun-14 20:57N 51°15' E 004°23'0 0.0
2018-Jun-14 20:30N 51°15' E 004°23'0 0.0
2018-Jun-14 19:57N 51°15' E 004°23'0 0.0
2018-Jun-14 19:27N 51°15' E 004°23'0 0.0
2018-Jun-14 19:00N 51°15' E 004°23'0 0.0
2018-Jun-14 18:27N 51°15' E 004°23'0 0.0
2018-Jun-14 18:00N 51°15' E 004°23'0 0.0
2018-Jun-14 17:30N 51°15' E 004°23'0 0.0
2018-Jun-14 17:00N 51°15' E 004°23'0 0.0
2018-Jun-14 16:30N 51°15' E 004°23'0 0.0
2018-Jun-14 16:00N 51°15' E 004°23'0 0.0
2018-Jun-14 15:30N 51°15' E 004°23'0 0.0
2018-Jun-14 15:00N 51°15' E 004°23'0 0.0
2018-Jun-14 14:30N 51°15' E 004°23'0 0.0
2018-Jun-14 14:00N 51°15' E 004°23'0 0.0
2018-Jun-14 13:27N 51°15' E 004°23'0 0.0
2018-Jun-14 12:57N 51°15' E 004°23'0 0.0
2018-Jun-14 12:30N 51°15' E 004°23'0 0.0
2018-Jun-14 11:59N 51°15' E 004°23'0 0.0
2018-Jun-14 11:30N 51°15' E 004°23'0 0.0
2018-Jun-14 11:00N 51°15' E 004°23'0 0.0
2018-Jun-14 10:30N 51°15' E 004°23'0 0.0
2018-Jun-14 10:00N 51°15' E 004°23'0 0.0
2018-Jun-14 09:30N 51°15' E 004°23'0 0.0
2018-Jun-14 08:59N 51°15' E 004°23'0 0.0
2018-Jun-14 08:30N 51°15' E 004°23'0 0.0
2018-Jun-14 07:59N 51°15' E 004°23'0 0.0
2018-Jun-14 07:27N 51°15' E 004°23'0 0.0
2018-Jun-14 07:00N 51°15' E 004°23'0 0.0
2018-Jun-14 06:29N 51°15' E 004°23'0 0.0
2018-Jun-14 05:59N 51°15' E 004°23'0 0.0
2018-Jun-14 05:29N 51°15' E 004°23'0 0.0
2018-Jun-14 05:00N 51°15' E 004°23'0 0.0
2018-Jun-14 04:29N 51°15' E 004°23'0 0.0
2018-Jun-14 04:00N 51°15' E 004°23'0 0.0
2018-Jun-14 03:29N 51°15' E 004°23'0 0.0
2018-Jun-14 03:00N 51°15' E 004°23'0 0.0
2018-Jun-14 02:29N 51°15' E 004°23'0 0.0
2018-Jun-14 02:00N 51°15' E 004°23'1 3.0
2018-Jun-14 01:30N 51°16' E 004°21'3 5.6
2018-Jun-14 01:00N 51°18' E 004°19'3 6.4
2018-Jun-14 00:31N 51°21' E 004°18'0 0.0
2018-Jun-14 00:00N 51°21' E 004°18'0 0.0
2018-Jun-13 23:27N 51°21' E 004°18'0 0.0
2018-Jun-13 23:00N 51°21' E 004°18'0 0.0
2018-Jun-13 22:30N 51°21' E 004°18'0 0.0
2018-Jun-13 22:00N 51°21' E 004°18'0 0.0
2018-Jun-13 21:21N 51°21' E 004°18'0 0.0
2018-Jun-13 19:57N 51°21' E 004°18'0 0.0
2018-Jun-13 19:18N 51°21' E 004°18'0 0.0
2018-Jun-13 17:09N 51°21' E 004°18'0 0.0
2018-Jun-13 17:00N 51°21' E 004°18'0 0.0
2018-Jun-13 00:51N 51°21' E 004°18'0 0.0
2018-Jun-12 23:15N 51°21' E 004°18'0 0.0
2018-Jun-12 21:45N 51°21' E 004°18'0 0.0
2018-Jun-12 18:21N 51°21' E 004°18'0 1.2
2018-Jun-12 18:00N 51°21' E 004°18'0 0.8
2018-Jun-12 17:31N 51°21' E 004°17'0 0.0
2018-Jun-12 17:01N 51°21' E 004°17'0 0.0
2018-Jun-12 16:30N 51°21' E 004°17'0 0.1
2018-Jun-12 16:00N 51°21' E 004°17'2 3.9
2018-Jun-12 15:31N 51°21' E 004°14'3 6.7
2018-Jun-12 15:00N 51°23' E 004°09'5 9.6
2018-Jun-12 14:31N 51°24' E 004°02'3 5.8
2018-Jun-12 14:00N 51°24' E 003°57'611.5
2018-Jun-12 13:31N 51°21' E 003°50'611.5
2018-Jun-12 13:00N 51°24' E 003°42'5 9.3
2018-Jun-12 12:30N 51°25' E 003°35'4 8.4
2018-Jun-12 12:00N 51°25' E 003°29'714.4
2018-Jun-12 11:30N 51°24' E 003°17'714.4
2018-Jun-12 11:00N 51°24' E 003°05'713.5
2018-Jun-12 10:29N 51°22' E 002°54'713.6
2018-Jun-12 09:59N 51°22' E 002°44'4 8.4
2018-Jun-12 09:30N 51°22' E 002°37'3 6.1
2018-Jun-12 09:00N 51°20' E 002°33'0 0.7
2018-Jun-12 08:24N 51°20' E 002°33'0 0.0
2018-Jun-12 08:00N 51°20' E 002°33'0 0.0
2018-Jun-12 07:30N 51°20' E 002°33'0 0.0
2018-Jun-12 07:00N 51°20' E 002°33'0 0.0
2018-Jun-12 06:30N 51°20' E 002°33'0 0.0
2018-Jun-12 05:57N 51°20' E 002°33'0 0.0
2018-Jun-12 05:30N 51°20' E 002°33'0 0.0
2018-Jun-12 04:45N 51°20' E 002°33'0 0.0
2018-Jun-12 04:27N 51°20' E 002°33'0 0.0
2018-Jun-12 03:57N 51°20' E 002°33'0 0.0
2018-Jun-12 03:27N 51°20' E 002°33'0 0.0
2018-Jun-12 03:00N 51°20' E 002°33'0 0.1
2018-Jun-12 02:31N 51°20' E 002°33'0 0.2
2018-Jun-12 02:00N 51°20' E 002°33'0 0.1
2018-Jun-12 01:30N 51°20' E 002°33'0 0.1
2018-Jun-12 00:51N 51°20' E 002°33'0 0.0
2018-Jun-12 00:30N 51°20' E 002°33'0 0.0
2018-Jun-12 00:00N 51°20' E 002°33'0 0.0
2018-Jun-11 23:30N 51°20' E 002°33'0 0.0
2018-Jun-11 22:57N 51°20' E 002°33'0 0.1
2018-Jun-11 22:27N 51°20' E 002°33'0 0.4
2018-Jun-11 22:00N 51°20' E 002°33'0 0.2
2018-Jun-11 21:30N 51°20' E 002°33'0 0.0
2018-Jun-11 21:00N 51°20' E 002°33'0 0.0
2018-Jun-11 20:30N 51°20' E 002°33'0 0.0
2018-Jun-11 20:00N 51°20' E 002°33'0 0.0
2018-Jun-11 19:30N 51°20' E 002°33'0 0.0
2018-Jun-11 19:00N 51°20' E 002°33'0 0.0
2018-Jun-11 18:30N 51°20' E 002°33'0 0.0
2018-Jun-11 18:00N 51°20' E 002°33'0 0.0
2018-Jun-11 17:30N 51°20' E 002°33'0 0.0
2018-Jun-11 17:00N 51°20' E 002°33'0 0.0
2018-Jun-11 16:30N 51°20' E 002°33'0 0.0
2018-Jun-11 16:00N 51°20' E 002°33'0 0.0
2018-Jun-11 15:30N 51°20' E 002°33'0 0.0
2018-Jun-11 15:00N 51°20' E 002°33'0 0.0
2018-Jun-11 14:30N 51°20' E 002°33'0 0.2
2018-Jun-11 13:54N 51°20' E 002°33'0 0.4
2018-Jun-11 13:30N 51°20' E 002°33'0 0.1
2018-Jun-11 13:00N 51°20' E 002°33'0 0.0
2018-Jun-11 12:30N 51°20' E 002°33'0 0.0
2018-Jun-11 11:57N 51°20' E 002°33'0 0.0
2018-Jun-11 11:30N 51°20' E 002°33'0 0.0
2018-Jun-11 11:00N 51°20' E 002°33'0 0.0
2018-Jun-11 10:27N 51°20' E 002°33'0 0.1
2018-Jun-11 10:00N 51°20' E 002°33'0 0.3
2018-Jun-11 09:27N 51°20' E 002°33'0 0.1
2018-Jun-11 09:00N 51°20' E 002°33'0 0.0
2018-Jun-11 08:30N 51°20' E 002°33'0 0.0
2018-Jun-11 08:00N 51°20' E 002°33'0 0.0
2018-Jun-11 07:27N 51°20' E 002°33'0 0.0
2018-Jun-11 07:00N 51°20' E 002°33'0 0.0
2018-Jun-11 06:27N 51°20' E 002°33'0 0.0
2018-Jun-11 06:00N 51°20' E 002°33'0 0.0
2018-Jun-11 05:30N 51°20' E 002°33'0 0.0
2018-Jun-11 05:00N 51°20' E 002°33'0 0.0
2018-Jun-11 04:30N 51°20' E 002°33'0 0.0
2018-Jun-11 04:00N 51°20' E 002°33'0 0.0
2018-Jun-11 03:27N 51°20' E 002°33'0 0.0
2018-Jun-11 03:00N 51°20' E 002°33'0 0.0
2018-Jun-11 02:30N 51°20' E 002°33'0 0.0
2018-Jun-11 02:00N 51°20' E 002°33'0 0.2
2018-Jun-11 01:30N 51°20' E 002°33'0 0.2
2018-Jun-11 01:00N 51°20' E 002°33'0 0.0
2018-Jun-11 00:30N 51°20' E 002°33'0 0.0
2018-Jun-11 00:00N 51°20' E 002°33'0 0.0
2018-Jun-10 23:30N 51°20' E 002°33'0 0.1
2018-Jun-10 21:45N 51°20' E 002°33'0 0.6
2018-Jun-10 21:27N 51°20' E 002°33'1 2.1
2018-Jun-10 21:00N 51°20' E 002°34'1 2.1
2018-Jun-10 20:28N 51°21' E 002°33'3 5.7
2018-Jun-10 20:00N 51°22' E 002°29'611.6
2018-Jun-10 19:29N 51°19' E 002°20'611.3
2018-Jun-10 19:00N 51°17' E 002°12'510.6
2018-Jun-10 18:30N 51°14' E 002°05'510.3
2018-Jun-10 18:00N 51°12' E 001°58'5 9.7
2018-Jun-10 17:30N 51°09' E 001°51'5 9.4
2018-Jun-10 17:00N 51°06' E 001°45'5 9.3
2018-Jun-10 16:30N 51°03' E 001°40'5 9.1
2018-Jun-10 16:00N 50°60' E 001°35'5 9.2
2018-Jun-10 15:30N 50°56' E 001°30'4 8.8
2018-Jun-10 15:00N 50°52' E 001°27'7 9.7
2018-Jun-10 14:15N 50°46' E 001°23'2310.1
2018-Jun-10 12:01N 50°29' E 000°58'010.7
2018-Jun-10 12:00N 50°29' E 000°58'2610.9
2018-Jun-10 09:35N 50°21' E 000°19'311.2
2018-Jun-10 09:20N 50°20' E 000°15'1511.8
2018-Jun-10 08:03N 50°17' W 000°08'212.3
2018-Jun-10 07:55N 50°17' W 000°11'512.5
2018-Jun-10 07:29N 50°15' W 000°19'612.8
2018-Jun-10 07:00N 50°14' W 000°28'713.4
2018-Jun-10 06:30N 50°12' W 000°38'713.9
2018-Jun-10 06:00N 50°10' W 000°49'814.1
2018-Jun-10 05:28N 50°08' W 001°00'714.4
2018-Jun-10 04:59N 50°06' W 001°11'714.4
2018-Jun-10 04:30N 50°05' W 001°21'714.8
2018-Jun-10 04:00N 50°03' W 001°32'914.3
2018-Jun-10 03:24N 50°01' W 001°45'514.1
2018-Jun-10 03:00N 49°59' W 001°54'713.7
2018-Jun-10 02:30N 49°58' W 002°04'713.1
2018-Jun-10 01:59N 49°56' W 002°14'812.6
2018-Jun-10 01:23N 49°54' W 002°26'711.9
2018-Jun-10 00:46N 49°51' W 002°37'1511.1
2018-Jun-09 23:27N 49°47' W 002°58'511.0
2018-Jun-09 23:00N 49°45' W 003°05'611.0
2018-Jun-09 22:30N 49°42' W 003°12'1611.0
2018-Jun-09 21:00N 49°34' W 003°35'1411.3
2018-Jun-09 19:45N 49°27' W 003°53'  
Track history (hours):
 
Tides and Currents Weather Stations Pressure Air Temp Water Temp Dewpoint Dewpoint Depression Visibility Wind Speed Wind Dir Waves Ship Positions

Lavela

Last reported at 2018-Jun-19 14:16 UTC. Time now 2018-Jul-17 22:58 UTC.
Position N 48°37' W 006°02'.
Warning: this ship's position is 28 days out of date.

Length 175 m; draft 9.3 m.

Type: Tanker. MMSI: 235068202.

Date/timePositionNaut miles runAvg speedWind from/ knotsBaromVisibWave heightAir tempDewpointWater temp
2018-Jun-19 14:16N 48°37' W 006°02'413.4
2018-Jun-19 13:58N 48°41' W 005°59'613.2
2018-Jun-19 13:30N 48°46' W 005°55'713.2
2018-Jun-19 12:59N 48°52' W 005°50'612.0
2018-Jun-19 12:30N 48°56' W 005°43'611.8
2018-Jun-19 11:59N 48°59' W 005°36'611.4
2018-Jun-19 11:27N 49°03' W 005°28'611.4
2018-Jun-19 10:56N 49°05' W 005°20'510.9
2018-Jun-19 10:27N 49°07' W 005°13'1710.4
2018-Jun-19 08:50N 49°16' W 004°50'6411.9
2018-Jun-19 03:27N 49°49' W 003°26'612.8
2018-Jun-19 03:00N 49°52' W 003°18'1212.2
2018-Jun-19 02:01N 49°57' W 003°01'111.7
2018-Jun-19 01:57N 49°57' W 002°60'711.1
2018-Jun-19 01:22N 49°60' W 002°50'510.5
2018-Jun-19 00:50N 50°01' W 002°42'410.1
2018-Jun-19 00:27N 50°02' W 002°36'40 9.8
2018-Jun-18 20:19N 50°13' W 001°36'2513.8
2018-Jun-18 18:33N 50°19' W 000°58'314.8
2018-Jun-18 18:19N 50°20' W 000°53'1214.3
2018-Jun-18 17:28N 50°23' W 000°35'713.8
2018-Jun-18 16:56N 50°25' W 000°24'1412.8
2018-Jun-18 15:50N 50°29' W 000°03'512.3
2018-Jun-18 15:26N 50°30' E 000°05'511.9
2018-Jun-18 15:00N 50°32' E 000°12'611.5
2018-Jun-18 14:30N 50°33' E 000°21'511.1
2018-Jun-18 14:01N 50°35' E 000°29'510.5
2018-Jun-18 13:30N 50°37' E 000°37'510.5
2018-Jun-18 13:01N 50°39' E 000°44'510.6
2018-Jun-18 12:31N 50°42' E 000°51'611.1
2018-Jun-18 12:01N 50°45' E 000°59'711.9
2018-Jun-18 11:24N 50°49' E 001°08'512.8
2018-Jun-18 11:01N 50°52' E 001°15'714.0
2018-Jun-18 10:30N 50°57' E 001°22'714.7
2018-Jun-18 10:00N 51°03' E 001°29'714.5
2018-Jun-18 09:30N 51°08' E 001°38'713.8
2018-Jun-18 09:00N 51°13' E 001°45'612.8
2018-Jun-18 08:30N 51°18' E 001°51'612.1
2018-Jun-18 08:00N 51°24' E 001°56'510.3
2018-Jun-18 07:30N 51°25' E 002°04'612.1
2018-Jun-18 07:00N 51°22' E 002°12'610.5
2018-Jun-18 06:29N 51°21' E 002°21'510.8
2018-Jun-18 05:58N 51°23' E 002°30'610.6
2018-Jun-18 05:27N 51°23' E 002°39'510.3
2018-Jun-18 04:59N 51°22' E 002°46'510.2
2018-Jun-18 04:30N 51°23' E 002°54'510.6
2018-Jun-18 04:00N 51°24' E 003°02'510.2
2018-Jun-18 03:30N 51°24' E 003°10'510.1
2018-Jun-18 03:00N 51°25' E 003°18'5 9.5
2018-Jun-18 02:30N 51°25' E 003°26'510.0
2018-Jun-18 02:00N 51°26' E 003°34'3 6.6
2018-Jun-18 01:30N 51°26' E 003°39'5 9.8
2018-Jun-18 01:00N 51°23' E 003°44'511.0
2018-Jun-18 00:30N 51°21' E 003°52'611.0
2018-Jun-18 00:00N 51°25' E 003°58'4 8.8
2018-Jun-17 23:30N 51°23' E 004°03'611.6
2018-Jun-17 23:00N 51°24' E 004°13'4 8.4
2018-Jun-17 22:31N 51°21' E 004°17'0 0.1
2018-Jun-17 22:01N 51°21' E 004°17'0 0.0
2018-Jun-17 21:31N 51°21' E 004°17'1 2.9
2018-Jun-17 21:00N 51°19' E 004°19'2 3.6
2018-Jun-17 20:24N 51°18' E 004°20'0 0.0
2018-Jun-17 20:00N 51°18' E 004°20'0 0.0
2018-Jun-17 19:30N 51°18' E 004°20'0 0.0
2018-Jun-17 19:00N 51°18' E 004°20'0 0.0
2018-Jun-17 18:24N 51°18' E 004°20'0 0.0
2018-Jun-17 18:00N 51°18' E 004°20'0 0.0
2018-Jun-17 17:30N 51°18' E 004°20'0 0.0
2018-Jun-17 17:00N 51°18' E 004°20'0 0.0
2018-Jun-17 16:30N 51°18' E 004°20'0 0.0
2018-Jun-17 16:00N 51°18' E 004°20'0 0.0
2018-Jun-17 15:24N 51°18' E 004°20'0 0.0
2018-Jun-17 15:00N 51°18' E 004°20'0 0.0
2018-Jun-17 14:30N 51°18' E 004°20'0 0.0
2018-Jun-17 14:00N 51°18' E 004°20'0 0.0
2018-Jun-17 13:18N 51°18' E 004°20'0 0.0
2018-Jun-17 13:00N 51°18' E 004°20'0 0.0
2018-Jun-17 12:30N 51°18' E 004°20'0 0.0
2018-Jun-17 12:00N 51°18' E 004°20'0 0.0
2018-Jun-17 11:30N 51°18' E 004°20'0 0.0
2018-Jun-17 11:00N 51°18' E 004°20'0 0.0
2018-Jun-17 09:36N 51°18' E 004°20'0 0.0
2018-Jun-17 09:30N 51°18' E 004°20'0 0.0
2018-Jun-17 07:48N 51°18' E 004°20'0 0.0
2018-Jun-17 07:30N 51°18' E 004°20'0 0.0
2018-Jun-17 06:48N 51°18' E 004°20'0 0.0
2018-Jun-17 06:30N 51°18' E 004°20'0 0.0
2018-Jun-17 04:36N 51°18' E 004°20'0 0.0
2018-Jun-17 04:30N 51°18' E 004°20'0 0.0
2018-Jun-17 04:00N 51°18' E 004°20'0 0.0
2018-Jun-17 02:33N 51°18' E 004°20'0 0.0
2018-Jun-17 02:21N 51°18' E 004°20'0 0.0
2018-Jun-16 21:42N 51°18' E 004°20'0 0.0
2018-Jun-16 18:24N 51°18' E 004°20'0 0.0
2018-Jun-16 17:42N 51°18' E 004°20'0 0.0
2018-Jun-16 17:24N 51°18' E 004°20'0 0.0
2018-Jun-16 16:54N 51°18' E 004°20'0 0.0
2018-Jun-16 16:30N 51°18' E 004°20'0 0.0
2018-Jun-16 14:54N 51°18' E 004°20'0 0.0
2018-Jun-16 14:30N 51°18' E 004°20'0 0.0
2018-Jun-16 13:54N 51°18' E 004°20'0 0.0
2018-Jun-16 13:30N 51°18' E 004°20'0 0.0
2018-Jun-16 13:00N 51°18' E 004°20'0 0.0
2018-Jun-16 12:30N 51°18' E 004°20'0 0.0
2018-Jun-16 12:00N 51°18' E 004°20'0 0.0
2018-Jun-16 11:18N 51°18' E 004°20'0 0.0
2018-Jun-16 11:00N 51°18' E 004°20'0 0.0
2018-Jun-16 10:30N 51°18' E 004°20'0 0.0
2018-Jun-16 09:54N 51°18' E 004°20'0 0.0
2018-Jun-16 09:18N 51°18' E 004°20'0 0.0
2018-Jun-16 08:48N 51°18' E 004°20'0 0.0
2018-Jun-16 08:21N 51°18' E 004°20'0 0.0
2018-Jun-16 07:57N 51°18' E 004°20'0 0.0
2018-Jun-16 07:30N 51°18' E 004°20'0 0.0
2018-Jun-16 07:00N 51°18' E 004°20'0 0.0
2018-Jun-16 06:27N 51°18' E 004°20'0 0.0
2018-Jun-16 06:00N 51°18' E 004°20'0 0.0
2018-Jun-16 05:30N 51°18' E 004°20'0 0.0
2018-Jun-16 05:00N 51°18' E 004°20'0 0.0
2018-Jun-16 04:30N 51°18' E 004°20'0 0.0
2018-Jun-16 04:00N 51°18' E 004°20'0 0.0
2018-Jun-16 03:24N 51°18' E 004°20'0 0.0
2018-Jun-16 03:00N 51°18' E 004°20'0 0.0
2018-Jun-16 02:30N 51°18' E 004°20'0 0.0
2018-Jun-16 02:00N 51°18' E 004°20'0 0.0
2018-Jun-16 01:30N 51°18' E 004°20'0 0.0
2018-Jun-16 00:54N 51°18' E 004°20'0 0.0
2018-Jun-16 00:24N 51°18' E 004°20'0 0.0
2018-Jun-16 00:00N 51°18' E 004°20'0 0.0
2018-Jun-15 23:18N 51°18' E 004°20'0 0.0
2018-Jun-15 22:54N 51°18' E 004°20'0 0.0
2018-Jun-15 22:24N 51°18' E 004°20'0 0.0
2018-Jun-15 21:54N 51°18' E 004°20'0 0.0
2018-Jun-15 21:30N 51°18' E 004°20'0 0.0
2018-Jun-15 20:54N 51°18' E 004°20'0 0.0
2018-Jun-15 17:48N 51°18' E 004°20'0 0.0
2018-Jun-15 17:24N 51°18' E 004°20'0 0.0
2018-Jun-15 16:54N 51°18' E 004°20'0 0.0
2018-Jun-15 16:06N 51°18' E 004°20'0 0.1
2018-Jun-15 16:00N 51°18' E 004°20'0 0.0
2018-Jun-15 15:30N 51°18' E 004°20'0 0.0
2018-Jun-15 14:54N 51°18' E 004°20'0 0.0
2018-Jun-15 14:30N 51°18' E 004°20'0 0.0
2018-Jun-15 14:00N 51°18' E 004°20'0 0.0
2018-Jun-15 13:30N 51°18' E 004°20'0 0.0
2018-Jun-15 12:30N 51°18' E 004°20'0 0.0
2018-Jun-15 12:00N 51°18' E 004°20'0 0.0
2018-Jun-15 11:30N 51°18' E 004°20'0 0.0
2018-Jun-15 10:48N 51°18' E 004°20'0 0.0
2018-Jun-15 10:30N 51°18' E 004°20'0 0.0
2018-Jun-15 09:48N 51°18' E 004°20'0 0.0
2018-Jun-15 09:30N 51°18' E 004°20'0 0.0
2018-Jun-15 08:42N 51°18' E 004°20'0 0.0
2018-Jun-15 07:36N 51°18' E 004°20'0 0.0
2018-Jun-15 07:24N 51°18' E 004°20'0 0.0
2018-Jun-15 06:54N 51°18' E 004°20'0 0.0
2018-Jun-15 06:24N 51°18' E 004°20'0 0.0
2018-Jun-15 06:00N 51°18' E 004°20'0 0.0
2018-Jun-15 05:30N 51°18' E 004°20'0 0.9
2018-Jun-15 05:00N 51°17' E 004°20'3 5.2
2018-Jun-15 04:30N 51°15' E 004°22'0 0.8
2018-Jun-15 04:00N 51°15' E 004°23'0 0.0
2018-Jun-15 03:30N 51°15' E 004°23'0 0.0
2018-Jun-15 03:00N 51°15' E 004°23'0 0.0
2018-Jun-15 02:30N 51°15' E 004°23'0 0.0
2018-Jun-15 02:00N 51°15' E 004°23'0 0.0
2018-Jun-15 01:30N 51°15' E 004°23'0 0.0
2018-Jun-15 01:00N 51°15' E 004°23'0 0.0
2018-Jun-15 00:30N 51°15' E 004°23'0 0.0
2018-Jun-15 00:00N 51°15' E 004°23'0 0.0
2018-Jun-14 23:30N 51°15' E 004°23'0 0.0
2018-Jun-14 23:00N 51°15' E 004°23'0 0.0
2018-Jun-14 22:30N 51°15' E 004°23'0 0.0
2018-Jun-14 22:00N 51°15' E 004°23'0 0.0
2018-Jun-14 21:24N 51°15' E 004°23'0 0.0
2018-Jun-14 20:57N 51°15' E 004°23'0 0.0
2018-Jun-14 20:30N 51°15' E 004°23'0 0.0
2018-Jun-14 19:57N 51°15' E 004°23'0 0.0
2018-Jun-14 19:27N 51°15' E 004°23'0 0.0
2018-Jun-14 19:00N 51°15' E 004°23'0 0.0
2018-Jun-14 18:27N 51°15' E 004°23'0 0.0
2018-Jun-14 18:00N 51°15' E 004°23'0 0.0
2018-Jun-14 17:30N 51°15' E 004°23'0 0.0
2018-Jun-14 17:00N 51°15' E 004°23'0 0.0
2018-Jun-14 16:30N 51°15' E 004°23'0 0.0
2018-Jun-14 16:00N 51°15' E 004°23'0 0.0
2018-Jun-14 15:30N 51°15' E 004°23'0 0.0
2018-Jun-14 15:00N 51°15' E 004°23'0 0.0
2018-Jun-14 14:30N 51°15' E 004°23'0 0.0
2018-Jun-14 14:00N 51°15' E 004°23'0 0.0
2018-Jun-14 13:27N 51°15' E 004°23'0 0.0
2018-Jun-14 12:57N 51°15' E 004°23'0 0.0
2018-Jun-14 12:30N 51°15' E 004°23'0 0.0
2018-Jun-14 11:59N 51°15' E 004°23'0 0.0
2018-Jun-14 11:30N 51°15' E 004°23'0 0.0
2018-Jun-14 11:00N 51°15' E 004°23'0 0.0
2018-Jun-14 10:30N 51°15' E 004°23'0 0.0
2018-Jun-14 10:00N 51°15' E 004°23'0 0.0
2018-Jun-14 09:30N 51°15' E 004°23'0 0.0
2018-Jun-14 08:59N 51°15' E 004°23'0 0.0
2018-Jun-14 08:30N 51°15' E 004°23'0 0.0
2018-Jun-14 07:59N 51°15' E 004°23'0 0.0
2018-Jun-14 07:27N 51°15' E 004°23'0 0.0
2018-Jun-14 07:00N 51°15' E 004°23'0 0.0
2018-Jun-14 06:29N 51°15' E 004°23'0 0.0
2018-Jun-14 05:59N 51°15' E 004°23'0 0.0
2018-Jun-14 05:29N 51°15' E 004°23'0 0.0
2018-Jun-14 05:00N 51°15' E 004°23'0 0.0
2018-Jun-14 04:29N 51°15' E 004°23'0 0.0
2018-Jun-14 04:00N 51°15' E 004°23'0 0.0
2018-Jun-14 03:29N 51°15' E 004°23'0 0.0
2018-Jun-14 03:00N 51°15' E 004°23'0 0.0
2018-Jun-14 02:29N 51°15' E 004°23'0 0.0
2018-Jun-14 02:00N 51°15' E 004°23'1 3.0
2018-Jun-14 01:30N 51°16' E 004°21'3 5.6
2018-Jun-14 01:00N 51°18' E 004°19'3 6.4
2018-Jun-14 00:31N 51°21' E 004°18'0 0.0
2018-Jun-14 00:00N 51°21' E 004°18'0 0.0
2018-Jun-13 23:27N 51°21' E 004°18'0 0.0
2018-Jun-13 23:00N 51°21' E 004°18'0 0.0
2018-Jun-13 22:30N 51°21' E 004°18'0 0.0
2018-Jun-13 22:00N 51°21' E 004°18'0 0.0
2018-Jun-13 21:21N 51°21' E 004°18'0 0.0
2018-Jun-13 19:57N 51°21' E 004°18'0 0.0
2018-Jun-13 19:18N 51°21' E 004°18'0 0.0
2018-Jun-13 17:09N 51°21' E 004°18'0 0.0
2018-Jun-13 17:00N 51°21' E 004°18'0 0.0
2018-Jun-13 00:51N 51°21' E 004°18'0 0.0
2018-Jun-12 23:15N 51°21' E 004°18'0 0.0
2018-Jun-12 21:45N 51°21' E 004°18'0 0.0
2018-Jun-12 18:21N 51°21' E 004°18'0 1.2
2018-Jun-12 18:00N 51°21' E 004°18'0 0.8
2018-Jun-12 17:31N 51°21' E 004°17'0 0.0
2018-Jun-12 17:01N 51°21' E 004°17'0 0.0
2018-Jun-12 16:30N 51°21' E 004°17'0 0.1
2018-Jun-12 16:00N 51°21' E 004°17'2 3.9
2018-Jun-12 15:31N 51°21' E 004°14'3 6.7
2018-Jun-12 15:00N 51°23' E 004°09'5 9.6
2018-Jun-12 14:31N 51°24' E 004°02'3 5.8
2018-Jun-12 14:00N 51°24' E 003°57'611.5
2018-Jun-12 13:31N 51°21' E 003°50'611.5
2018-Jun-12 13:00N 51°24' E 003°42'5 9.3
2018-Jun-12 12:30N 51°25' E 003°35'4 8.4
2018-Jun-12 12:00N 51°25' E 003°29'714.4
2018-Jun-12 11:30N 51°24' E 003°17'714.4
2018-Jun-12 11:00N 51°24' E 003°05'713.5
2018-Jun-12 10:29N 51°22' E 002°54'713.6
2018-Jun-12 09:59N 51°22' E 002°44'4 8.4
2018-Jun-12 09:30N 51°22' E 002°37'3 6.1
2018-Jun-12 09:00N 51°20' E 002°33'0 0.7
2018-Jun-12 08:24N 51°20' E 002°33'0 0.0
2018-Jun-12 08:00N 51°20' E 002°33'0 0.0
2018-Jun-12 07:30N 51°20' E 002°33'0 0.0
2018-Jun-12 07:00N 51°20' E 002°33'0 0.0
2018-Jun-12 06:30N 51°20' E 002°33'0 0.0
2018-Jun-12 05:57N 51°20' E 002°33'0 0.0
2018-Jun-12 05:30N 51°20' E 002°33'0 0.0
2018-Jun-12 04:45N 51°20' E 002°33'0 0.0
2018-Jun-12 04:27N 51°20' E 002°33'0 0.0
2018-Jun-12 03:57N 51°20' E 002°33'0 0.0
2018-Jun-12 03:27N 51°20' E 002°33'0 0.0
2018-Jun-12 03:00N 51°20' E 002°33'0 0.1
2018-Jun-12 02:31N 51°20' E 002°33'0 0.2
2018-Jun-12 02:00N 51°20' E 002°33'0 0.1
2018-Jun-12 01:30N 51°20' E 002°33'0 0.1
2018-Jun-12 00:51N 51°20' E 002°33'0 0.0
2018-Jun-12 00:30N 51°20' E 002°33'0 0.0
2018-Jun-12 00:00N 51°20' E 002°33'0 0.0
2018-Jun-11 23:30N 51°20' E 002°33'0 0.0
2018-Jun-11 22:57N 51°20' E 002°33'0 0.1
2018-Jun-11 22:27N 51°20' E 002°33'0 0.4
2018-Jun-11 22:00N 51°20' E 002°33'0 0.2
2018-Jun-11 21:30N 51°20' E 002°33'0 0.0
2018-Jun-11 21:00N 51°20' E 002°33'0 0.0
2018-Jun-11 20:30N 51°20' E 002°33'0 0.0
2018-Jun-11 20:00N 51°20' E 002°33'0 0.0
2018-Jun-11 19:30N 51°20' E 002°33'0 0.0
2018-Jun-11 19:00N 51°20' E 002°33'0 0.0
2018-Jun-11 18:30N 51°20' E 002°33'0 0.0
2018-Jun-11 18:00N 51°20' E 002°33'0 0.0
2018-Jun-11 17:30N 51°20' E 002°33'0 0.0
2018-Jun-11 17:00N 51°20' E 002°33'0 0.0
2018-Jun-11 16:30N 51°20' E 002°33'0 0.0
2018-Jun-11 16:00N 51°20' E 002°33'0 0.0
2018-Jun-11 15:30N 51°20' E 002°33'0 0.0
2018-Jun-11 15:00N 51°20' E 002°33'0 0.0
2018-Jun-11 14:30N 51°20' E 002°33'0 0.2
2018-Jun-11 13:54N 51°20' E 002°33'0 0.4
2018-Jun-11 13:30N 51°20' E 002°33'0 0.1
2018-Jun-11 13:00N 51°20' E 002°33'0 0.0
2018-Jun-11 12:30N 51°20' E 002°33'0 0.0
2018-Jun-11 11:57N 51°20' E 002°33'0 0.0
2018-Jun-11 11:30N 51°20' E 002°33'0 0.0
2018-Jun-11 11:00N 51°20' E 002°33'0 0.0
2018-Jun-11 10:27N 51°20' E 002°33'0 0.1
2018-Jun-11 10:00N 51°20' E 002°33'0 0.3
2018-Jun-11 09:27N 51°20' E 002°33'0 0.1
2018-Jun-11 09:00N 51°20' E 002°33'0 0.0
2018-Jun-11 08:30N 51°20' E 002°33'0 0.0
2018-Jun-11 08:00N 51°20' E 002°33'0 0.0
2018-Jun-11 07:27N 51°20' E 002°33'0 0.0
2018-Jun-11 07:00N 51°20' E 002°33'0 0.0
2018-Jun-11 06:27N 51°20' E 002°33'0 0.0
2018-Jun-11 06:00N 51°20' E 002°33'0 0.0
2018-Jun-11 05:30N 51°20' E 002°33'0 0.0
2018-Jun-11 05:00N 51°20' E 002°33'0 0.0
2018-Jun-11 04:30N 51°20' E 002°33'0 0.0
2018-Jun-11 04:00N 51°20' E 002°33'0 0.0
2018-Jun-11 03:27N 51°20' E 002°33'0 0.0
2018-Jun-11 03:00N 51°20' E 002°33'0 0.0
2018-Jun-11 02:30N 51°20' E 002°33'0 0.0
2018-Jun-11 02:00N 51°20' E 002°33'0 0.2
2018-Jun-11 01:30N 51°20' E 002°33'0 0.2
2018-Jun-11 01:00N 51°20' E 002°33'0 0.0
2018-Jun-11 00:30N 51°20' E 002°33'0 0.0
2018-Jun-11 00:00N 51°20' E 002°33'0 0.0
2018-Jun-10 23:30N 51°20' E 002°33'0 0.1
2018-Jun-10 21:45N 51°20' E 002°33'0 0.6
2018-Jun-10 21:27N 51°20' E 002°33'1 2.1
2018-Jun-10 21:00N 51°20' E 002°34'1 2.1
2018-Jun-10 20:28N 51°21' E 002°33'3 5.7
2018-Jun-10 20:00N 51°22' E 002°29'611.6
2018-Jun-10 19:29N 51°19' E 002°20'611.3
2018-Jun-10 19:00N 51°17' E 002°12'510.6
2018-Jun-10 18:30N 51°14' E 002°05'510.3
2018-Jun-10 18:00N 51°12' E 001°58'5 9.7
2018-Jun-10 17:30N 51°09' E 001°51'5 9.4
2018-Jun-10 17:00N 51°06' E 001°45'5 9.3
2018-Jun-10 16:30N 51°03' E 001°40'5 9.1
2018-Jun-10 16:00N 50°60' E 001°35'5 9.2
2018-Jun-10 15:30N 50°56' E 001°30'4 8.8
2018-Jun-10 15:00N 50°52' E 001°27'7 9.7
2018-Jun-10 14:15N 50°46' E 001°23'2310.1
2018-Jun-10 12:01N 50°29' E 000°58'010.7
2018-Jun-10 12:00N 50°29' E 000°58'2610.9
2018-Jun-10 09:35N 50°21' E 000°19'311.2
2018-Jun-10 09:20N 50°20' E 000°15'1511.8
2018-Jun-10 08:03N 50°17' W 000°08'212.3
2018-Jun-10 07:55N 50°17' W 000°11'512.5
2018-Jun-10 07:29N 50°15' W 000°19'612.8
2018-Jun-10 07:00N 50°14' W 000°28'713.4
2018-Jun-10 06:30N 50°12' W 000°38'713.9
2018-Jun-10 06:00N 50°10' W 000°49'814.1
2018-Jun-10 05:28N 50°08' W 001°00'714.4
2018-Jun-10 04:59N 50°06' W 001°11'714.4
2018-Jun-10 04:30N 50°05' W 001°21'714.8
2018-Jun-10 04:00N 50°03' W 001°32'914.3
2018-Jun-10 03:24N 50°01' W 001°45'514.1
2018-Jun-10 03:00N 49°59' W 001°54'713.7
2018-Jun-10 02:30N 49°58' W 002°04'713.1
2018-Jun-10 01:59N 49°56' W 002°14'812.6
2018-Jun-10 01:23N 49°54' W 002°26'711.9
2018-Jun-10 00:46N 49°51' W 002°37'1511.1
2018-Jun-09 23:27N 49°47' W 002°58'511.0
2018-Jun-09 23:00N 49°45' W 003°05'611.0
2018-Jun-09 22:30N 49°42' W 003°12'1611.0
2018-Jun-09 21:00N 49°34' W 003°35'1411.3
2018-Jun-09 19:45N 49°27' W 003°53'  

Dump ship's entire track history